sensor_id;sensor_type;location;lat;lon;timestamp;P1;durP1;ratioP1;P2;durP2;ratioP2
66143;SDS011;52947;50.842;6.084;2023-03-01T00:01:11;13.73;;;7.63;;
66143;SDS011;52947;50.842;6.084;2023-03-01T00:03:40;15.23;;;7.30;;
66143;SDS011;52947;50.842;6.084;2023-03-01T00:06:09;17.52;;;7.20;;
66143;SDS011;52947;50.842;6.084;2023-03-01T00:08:37;13.07;;;7.10;;
66143;SDS011;52947;50.842;6.084;2023-03-01T00:11:06;14.05;;;7.22;;
66143;SDS011;52947;50.842;6.084;2023-03-01T00:13:36;13.60;;;6.40;;
66143;SDS011;52947;50.842;6.084;2023-03-01T00:16:04;11.73;;;6.05;;
66143;SDS011;52947;50.842;6.084;2023-03-01T00:18:34;11.02;;;6.68;;
66143;SDS011;52947;50.842;6.084;2023-03-01T00:23:29;14.95;;;6.85;;
66143;SDS011;52947;50.842;6.084;2023-03-01T00:25:57;12.88;;;7.82;;
66143;SDS011;52947;50.842;6.084;2023-03-01T00:28:25;12.50;;;8.00;;
66143;SDS011;52947;50.842;6.084;2023-03-01T00:30:53;13.50;;;7.70;;
66143;SDS011;52947;50.842;6.084;2023-03-01T00:33:21;12.63;;;6.93;;
66143;SDS011;52947;50.842;6.084;2023-03-01T00:35:51;13.75;;;7.10;;
66143;SDS011;52947;50.842;6.084;2023-03-01T00:40:46;11.60;;;7.30;;
66143;SDS011;52947;50.842;6.084;2023-03-01T00:43:14;13.15;;;7.65;;
66143;SDS011;52947;50.842;6.084;2023-03-01T00:45:42;15.90;;;8.07;;
66143;SDS011;52947;50.842;6.084;2023-03-01T00:48:10;18.63;;;8.73;;
66143;SDS011;52947;50.842;6.084;2023-03-01T00:50:38;14.68;;;8.20;;
66143;SDS011;52947;50.842;6.084;2023-03-01T00:53:08;18.98;;;9.95;;
66143;SDS011;52947;50.842;6.084;2023-03-01T00:55:36;20.33;;;9.57;;
66143;SDS011;52947;50.842;6.084;2023-03-01T00:58:04;22.27;;;9.20;;
66143;SDS011;52947;50.842;6.084;2023-03-01T01:00:32;14.30;;;8.00;;
66143;SDS011;52947;50.842;6.084;2023-03-01T01:03:01;13.05;;;7.13;;
66143;SDS011;52947;50.842;6.084;2023-03-01T01:05:30;15.68;;;7.78;;
66143;SDS011;52947;50.842;6.084;2023-03-01T01:07:57;15.93;;;7.93;;
66143;SDS011;52947;50.842;6.084;2023-03-01T01:10:27;13.82;;;7.90;;
66143;SDS011;52947;50.842;6.084;2023-03-01T01:15:22;14.88;;;7.82;;
66143;SDS011;52947;50.842;6.084;2023-03-01T01:17:50;13.95;;;8.32;;
66143;SDS011;52947;50.842;6.084;2023-03-01T01:20:18;13.82;;;8.07;;
66143;SDS011;52947;50.842;6.084;2023-03-01T01:22:46;11.13;;;7.15;;
66143;SDS011;52947;50.842;6.084;2023-03-01T01:25:14;16.95;;;7.93;;
66143;SDS011;52947;50.842;6.084;2023-03-01T01:27:43;17.00;;;8.20;;
66143;SDS011;52947;50.842;6.084;2023-03-01T01:32:40;11.15;;;7.32;;
66143;SDS011;52947;50.842;6.084;2023-03-01T01:35:08;13.50;;;7.65;;
66143;SDS011;52947;50.842;6.084;2023-03-01T01:37:36;11.32;;;7.47;;
66143;SDS011;52947;50.842;6.084;2023-03-01T01:40:04;14.05;;;7.68;;
66143;SDS011;52947;50.842;6.084;2023-03-01T01:42:32;13.57;;;7.68;;
66143;SDS011;52947;50.842;6.084;2023-03-01T01:48:03;15.45;;;7.70;;
66143;SDS011;52947;50.842;6.084;2023-03-01T01:50:34;12.75;;;7.38;;
66143;SDS011;52947;50.842;6.084;2023-03-01T01:53:05;10.82;;;7.25;;
66143;SDS011;52947;50.842;6.084;2023-03-01T01:55:36;13.15;;;8.23;;
66143;SDS011;52947;50.842;6.084;2023-03-01T01:58:07;14.18;;;7.68;;
66143;SDS011;52947;50.842;6.084;2023-03-01T02:00:39;14.27;;;7.40;;
66143;SDS011;52947;50.842;6.084;2023-03-01T02:03:09;13.15;;;7.93;;
66143;SDS011;52947;50.842;6.084;2023-03-01T02:05:40;14.52;;;8.35;;
66143;SDS011;52947;50.842;6.084;2023-03-01T02:08:21;11.93;;;7.10;;
66143;SDS011;52947;50.842;6.084;2023-03-01T02:10:52;14.00;;;7.20;;
66143;SDS011;52947;50.842;6.084;2023-03-01T02:13:22;13.30;;;7.60;;
66143;SDS011;52947;50.842;6.084;2023-03-01T02:15:52;14.50;;;7.07;;
66143;SDS011;52947;50.842;6.084;2023-03-01T02:18:21;13.10;;;8.32;;
66143;SDS011;52947;50.842;6.084;2023-03-01T02:20:54;18.48;;;8.25;;
66143;SDS011;52947;50.842;6.084;2023-03-01T02:23:36;12.60;;;7.68;;
66143;SDS011;52947;50.842;6.084;2023-03-01T02:26:06;12.13;;;7.93;;
66143;SDS011;52947;50.842;6.084;2023-03-01T02:28:44;12.73;;;7.47;;
66143;SDS011;52947;50.842;6.084;2023-03-01T02:31:14;15.45;;;8.32;;
66143;SDS011;52947;50.842;6.084;2023-03-01T02:34:02;12.73;;;7.50;;
66143;SDS011;52947;50.842;6.084;2023-03-01T02:36:34;12.68;;;7.60;;
66143;SDS011;52947;50.842;6.084;2023-03-01T02:39:04;13.98;;;8.05;;
66143;SDS011;52947;50.842;6.084;2023-03-01T02:41:41;12.98;;;7.55;;
66143;SDS011;52947;50.842;6.084;2023-03-01T02:44:14;12.90;;;7.68;;
66143;SDS011;52947;50.842;6.084;2023-03-01T02:46:43;13.88;;;8.02;;
66143;SDS011;52947;50.842;6.084;2023-03-01T02:49:20;17.08;;;8.40;;
66143;SDS011;52947;50.842;6.084;2023-03-01T02:51:56;19.80;;;8.30;;
66143;SDS011;52947;50.842;6.084;2023-03-01T02:54:36;21.25;;;8.30;;
66143;SDS011;52947;50.842;6.084;2023-03-01T02:57:10;13.93;;;8.23;;
66143;SDS011;52947;50.842;6.084;2023-03-01T02:59:40;15.23;;;8.27;;
66143;SDS011;52947;50.842;6.084;2023-03-01T03:02:18;17.75;;;9.30;;
66143;SDS011;52947;50.842;6.084;2023-03-01T03:05:23;20.50;;;10.77;;
66143;SDS011;52947;50.842;6.084;2023-03-01T03:07:55;18.90;;;10.13;;
66143;SDS011;52947;50.842;6.084;2023-03-01T03:10:25;17.65;;;10.68;;
66143;SDS011;52947;50.842;6.084;2023-03-01T03:12:56;15.68;;;10.32;;
66143;SDS011;52947;50.842;6.084;2023-03-01T03:15:27;18.00;;;9.85;;
66143;SDS011;52947;50.842;6.084;2023-03-01T03:17:55;19.48;;;9.73;;
66143;SDS011;52947;50.842;6.084;2023-03-01T03:20:25;18.90;;;10.00;;
66143;SDS011;52947;50.842;6.084;2023-03-01T03:22:56;20.63;;;10.00;;
66143;SDS011;52947;50.842;6.084;2023-03-01T03:25:26;17.52;;;10.20;;
66143;SDS011;52947;50.842;6.084;2023-03-01T03:30:25;15.98;;;9.35;;
66143;SDS011;52947;50.842;6.084;2023-03-01T03:32:56;16.35;;;10.00;;
66143;SDS011;52947;50.842;6.084;2023-03-01T03:35:26;23.95;;;11.57;;
66143;SDS011;52947;50.842;6.084;2023-03-01T03:37:57;18.00;;;10.52;;
66143;SDS011;52947;50.842;6.084;2023-03-01T03:40:29;29.88;;;17.73;;
66143;SDS011;52947;50.842;6.084;2023-03-01T03:42:58;32.10;;;17.30;;
66143;SDS011;52947;50.842;6.084;2023-03-01T03:45:27;26.58;;;14.25;;
66143;SDS011;52947;50.842;6.084;2023-03-01T03:47:55;19.00;;;11.90;;
66143;SDS011;52947;50.842;6.084;2023-03-01T03:50:23;19.30;;;11.48;;
66143;SDS011;52947;50.842;6.084;2023-03-01T03:52:51;21.70;;;11.27;;
66143;SDS011;52947;50.842;6.084;2023-03-01T03:55:19;17.80;;;10.00;;
66143;SDS011;52947;50.842;6.084;2023-03-01T03:57:47;14.50;;;9.32;;
66143;SDS011;52947;50.842;6.084;2023-03-01T04:00:18;17.25;;;9.52;;
66143;SDS011;52947;50.842;6.084;2023-03-01T04:02:49;16.08;;;8.95;;
66143;SDS011;52947;50.842;6.084;2023-03-01T04:05:22;18.98;;;9.55;;
66143;SDS011;52947;50.842;6.084;2023-03-01T04:07:52;16.67;;;9.50;;
66143;SDS011;52947;50.842;6.084;2023-03-01T04:10:27;14.80;;;8.98;;
66143;SDS011;52947;50.842;6.084;2023-03-01T04:12:56;14.20;;;8.68;;
66143;SDS011;52947;50.842;6.084;2023-03-01T04:15:24;22.75;;;10.50;;
66143;SDS011;52947;50.842;6.084;2023-03-01T04:17:55;17.13;;;11.55;;
66143;SDS011;52947;50.842;6.084;2023-03-01T04:20:24;20.63;;;10.93;;
66143;SDS011;52947;50.842;6.084;2023-03-01T04:22:56;21.63;;;10.50;;
66143;SDS011;52947;50.842;6.084;2023-03-01T04:25:25;21.83;;;11.20;;
66143;SDS011;52947;50.842;6.084;2023-03-01T04:27:53;19.60;;;11.35;;
66143;SDS011;52947;50.842;6.084;2023-03-01T04:30:21;19.83;;;10.95;;
66143;SDS011;52947;50.842;6.084;2023-03-01T04:32:51;17.02;;;10.65;;
66143;SDS011;52947;50.842;6.084;2023-03-01T04:35:20;19.67;;;10.65;;
66143;SDS011;52947;50.842;6.084;2023-03-01T04:37:49;17.98;;;10.15;;
66143;SDS011;52947;50.842;6.084;2023-03-01T04:40:17;24.43;;;11.37;;
66143;SDS011;52947;50.842;6.084;2023-03-01T04:42:45;20.10;;;11.95;;
66143;SDS011;52947;50.842;6.084;2023-03-01T04:45:13;20.37;;;12.33;;
66143;SDS011;52947;50.842;6.084;2023-03-01T04:47:42;17.15;;;11.45;;
66143;SDS011;52947;50.842;6.084;2023-03-01T04:50:13;19.90;;;11.32;;
66143;SDS011;52947;50.842;6.084;2023-03-01T04:52:43;18.95;;;11.48;;
66143;SDS011;52947;50.842;6.084;2023-03-01T04:55:12;21.63;;;12.65;;
66143;SDS011;52947;50.842;6.084;2023-03-01T04:57:40;23.00;;;13.40;;
66143;SDS011;52947;50.842;6.084;2023-03-01T05:00:09;21.83;;;13.25;;
66143;SDS011;52947;50.842;6.084;2023-03-01T05:02:47;20.07;;;12.10;;
66143;SDS011;52947;50.842;6.084;2023-03-01T05:05:24;18.45;;;11.85;;
66143;SDS011;52947;50.842;6.084;2023-03-01T05:07:56;26.42;;;11.32;;
66143;SDS011;52947;50.842;6.084;2023-03-01T05:10:25;21.65;;;10.77;;
66143;SDS011;52947;50.842;6.084;2023-03-01T05:12:56;19.85;;;12.15;;
66143;SDS011;52947;50.842;6.084;2023-03-01T05:15:24;21.87;;;12.27;;
66143;SDS011;52947;50.842;6.084;2023-03-01T05:17:54;22.52;;;13.30;;
66143;SDS011;52947;50.842;6.084;2023-03-01T05:20:25;22.83;;;14.27;;
66143;SDS011;52947;50.842;6.084;2023-03-01T05:22:54;25.83;;;14.18;;
66143;SDS011;52947;50.842;6.084;2023-03-01T05:25:32;28.45;;;13.98;;
66143;SDS011;52947;50.842;6.084;2023-03-01T05:28:00;23.25;;;13.75;;
66143;SDS011;52947;50.842;6.084;2023-03-01T05:30:30;21.15;;;13.05;;
66143;SDS011;52947;50.842;6.084;2023-03-01T05:32:59;26.25;;;13.68;;
66143;SDS011;52947;50.842;6.084;2023-03-01T05:35:28;24.27;;;14.75;;
66143;SDS011;52947;50.842;6.084;2023-03-01T05:38:00;22.80;;;12.40;;
66143;SDS011;52947;50.842;6.084;2023-03-01T05:42:56;19.85;;;12.77;;
66143;SDS011;52947;50.842;6.084;2023-03-01T05:45:25;23.30;;;12.63;;
66143;SDS011;52947;50.842;6.084;2023-03-01T05:47:54;23.17;;;12.95;;
66143;SDS011;52947;50.842;6.084;2023-03-01T05:50:22;23.85;;;12.88;;
66143;SDS011;52947;50.842;6.084;2023-03-01T05:52:52;19.45;;;11.80;;
66143;SDS011;52947;50.842;6.084;2023-03-01T05:55:27;18.48;;;11.20;;
66143;SDS011;52947;50.842;6.084;2023-03-01T05:57:57;21.70;;;11.73;;
66143;SDS011;52947;50.842;6.084;2023-03-01T06:00:26;14.88;;;10.90;;
66143;SDS011;52947;50.842;6.084;2023-03-01T06:05:24;20.13;;;10.83;;
66143;SDS011;52947;50.842;6.084;2023-03-01T06:07:52;16.95;;;11.00;;
66143;SDS011;52947;50.842;6.084;2023-03-01T06:10:21;21.52;;;10.75;;
66143;SDS011;52947;50.842;6.084;2023-03-01T06:12:51;24.42;;;13.70;;
66143;SDS011;52947;50.842;6.084;2023-03-01T06:17:46;26.08;;;16.48;;
66143;SDS011;52947;50.842;6.084;2023-03-01T06:20:15;27.80;;;15.57;;
66143;SDS011;52947;50.842;6.084;2023-03-01T06:25:13;25.43;;;14.43;;
66143;SDS011;52947;50.842;6.084;2023-03-01T06:27:42;21.10;;;12.88;;
66143;SDS011;52947;50.842;6.084;2023-03-01T06:30:12;24.77;;;12.88;;
66143;SDS011;52947;50.842;6.084;2023-03-01T06:32:41;62.22;;;23.08;;
66143;SDS011;52947;50.842;6.084;2023-03-01T06:35:09;57.25;;;24.17;;
66143;SDS011;52947;50.842;6.084;2023-03-01T06:40:07;35.83;;;15.88;;
66143;SDS011;52947;50.842;6.084;2023-03-01T06:42:39;24.80;;;14.98;;
66143;SDS011;52947;50.842;6.084;2023-03-01T06:45:08;34.58;;;17.05;;
66143;SDS011;52947;50.842;6.084;2023-03-01T06:47:38;31.90;;;16.02;;
66143;SDS011;52947;50.842;6.084;2023-03-01T06:52:34;65.72;;;22.92;;
66143;SDS011;52947;50.842;6.084;2023-03-01T06:55:02;54.42;;;20.65;;
66143;SDS011;52947;50.842;6.084;2023-03-01T06:57:31;39.63;;;17.38;;
66143;SDS011;52947;50.842;6.084;2023-03-01T06:59:59;32.13;;;14.40;;
66143;SDS011;52947;50.842;6.084;2023-03-01T07:02:26;46.40;;;19.25;;
66143;SDS011;52947;50.842;6.084;2023-03-01T07:04:56;46.10;;;16.60;;
66143;SDS011;52947;50.842;6.084;2023-03-01T07:07:24;24.92;;;11.70;;
66143;SDS011;52947;50.842;6.084;2023-03-01T07:09:51;17.50;;;9.52;;
66143;SDS011;52947;50.842;6.084;2023-03-01T07:12:20;15.48;;;8.43;;
66143;SDS011;52947;50.842;6.084;2023-03-01T07:14:48;16.02;;;8.55;;
66143;SDS011;52947;50.842;6.084;2023-03-01T07:17:16;22.02;;;8.70;;
66143;SDS011;52947;50.842;6.084;2023-03-01T07:19:45;19.33;;;9.98;;
66143;SDS011;52947;50.842;6.084;2023-03-01T07:22:14;12.85;;;7.80;;
66143;SDS011;52947;50.842;6.084;2023-03-01T07:24:42;17.85;;;7.93;;
66143;SDS011;52947;50.842;6.084;2023-03-01T07:27:10;12.77;;;7.18;;
66143;SDS011;52947;50.842;6.084;2023-03-01T07:29:38;15.55;;;7.45;;
66143;SDS011;52947;50.842;6.084;2023-03-01T07:32:06;13.60;;;8.00;;
66143;SDS011;52947;50.842;6.084;2023-03-01T07:34:34;12.80;;;7.47;;
66143;SDS011;52947;50.842;6.084;2023-03-01T07:37:02;18.08;;;7.13;;
66143;SDS011;52947;50.842;6.084;2023-03-01T07:39:31;15.27;;;7.05;;
66143;SDS011;52947;50.842;6.084;2023-03-01T07:41:59;12.60;;;7.30;;
66143;SDS011;52947;50.842;6.084;2023-03-01T07:44:27;12.68;;;7.15;;
66143;SDS011;52947;50.842;6.084;2023-03-01T07:46:55;17.98;;;7.55;;
66143;SDS011;52947;50.842;6.084;2023-03-01T07:49:24;13.63;;;7.68;;
66143;SDS011;52947;50.842;6.084;2023-03-01T07:51:53;15.93;;;8.07;;
66143;SDS011;52947;50.842;6.084;2023-03-01T07:54:21;18.40;;;7.70;;
66143;SDS011;52947;50.842;6.084;2023-03-01T07:56:51;11.90;;;7.03;;
66143;SDS011;52947;50.842;6.084;2023-03-01T08:01:46;22.10;;;11.82;;
66143;SDS011;52947;50.842;6.084;2023-03-01T08:04:14;12.70;;;8.18;;
66143;SDS011;52947;50.842;6.084;2023-03-01T08:06:42;10.85;;;7.63;;
66143;SDS011;52947;50.842;6.084;2023-03-01T08:09:10;12.85;;;7.15;;
66143;SDS011;52947;50.842;6.084;2023-03-01T08:11:38;13.40;;;7.65;;
66143;SDS011;52947;50.842;6.084;2023-03-01T08:14:07;10.68;;;5.75;;
66143;SDS011;52947;50.842;6.084;2023-03-01T08:19:03;12.05;;;6.50;;
66143;SDS011;52947;50.842;6.084;2023-03-01T08:21:32;10.55;;;7.13;;
66143;SDS011;52947;50.842;6.084;2023-03-01T08:24:01;15.07;;;7.18;;
66143;SDS011;52947;50.842;6.084;2023-03-01T08:26:29;11.85;;;6.63;;
66143;SDS011;52947;50.842;6.084;2023-03-01T08:28:59;10.88;;;6.88;;
66143;SDS011;52947;50.842;6.084;2023-03-01T08:33:58;10.73;;;6.90;;
66143;SDS011;52947;50.842;6.084;2023-03-01T08:36:28;17.17;;;8.20;;
66143;SDS011;52947;50.842;6.084;2023-03-01T08:38:58;18.58;;;8.02;;
66143;SDS011;52947;50.842;6.084;2023-03-01T08:41:26;11.50;;;6.75;;
66143;SDS011;52947;50.842;6.084;2023-03-01T08:43:54;13.43;;;6.70;;
66143;SDS011;52947;50.842;6.084;2023-03-01T08:46:25;14.73;;;7.47;;
66143;SDS011;52947;50.842;6.084;2023-03-01T08:51:24;10.60;;;7.35;;
66143;SDS011;52947;50.842;6.084;2023-03-01T08:54:02;10.82;;;7.22;;
66143;SDS011;52947;50.842;6.084;2023-03-01T08:56:55;14.70;;;7.50;;
66143;SDS011;52947;50.842;6.084;2023-03-01T08:59:25;13.15;;;7.88;;
66143;SDS011;52947;50.842;6.084;2023-03-01T09:01:55;13.68;;;8.20;;
66143;SDS011;52947;50.842;6.084;2023-03-01T09:04:25;14.43;;;7.93;;
66143;SDS011;52947;50.842;6.084;2023-03-01T09:09:20;19.73;;;11.15;;
66143;SDS011;52947;50.842;6.084;2023-03-01T09:11:48;14.07;;;8.30;;
66143;SDS011;52947;50.842;6.084;2023-03-01T09:14:17;15.05;;;9.20;;
66143;SDS011;52947;50.842;6.084;2023-03-01T09:16:45;15.82;;;8.70;;
66143;SDS011;52947;50.842;6.084;2023-03-01T09:19:13;13.15;;;8.30;;
66143;SDS011;52947;50.842;6.084;2023-03-01T09:21:42;13.73;;;9.10;;
66143;SDS011;52947;50.842;6.084;2023-03-01T09:24:19;15.75;;;9.48;;
66143;SDS011;52947;50.842;6.084;2023-03-01T09:26:47;12.90;;;8.90;;
66143;SDS011;52947;50.842;6.084;2023-03-01T09:31:44;18.02;;;9.85;;
66143;SDS011;52947;50.842;6.084;2023-03-01T09:34:12;16.77;;;9.10;;
66143;SDS011;52947;50.842;6.084;2023-03-01T09:36:43;28.92;;;12.00;;
66143;SDS011;52947;50.842;6.084;2023-03-01T09:39:11;12.73;;;8.50;;
66143;SDS011;52947;50.842;6.084;2023-03-01T09:41:43;14.65;;;9.13;;
66143;SDS011;52947;50.842;6.084;2023-03-01T09:44:21;14.10;;;8.57;;
66143;SDS011;52947;50.842;6.084;2023-03-01T09:46:55;15.32;;;8.73;;
66143;SDS011;52947;50.842;6.084;2023-03-01T09:49:25;17.92;;;9.40;;
66143;SDS011;52947;50.842;6.084;2023-03-01T09:52:00;12.45;;;8.05;;
66143;SDS011;52947;50.842;6.084;2023-03-01T09:54:41;18.15;;;8.70;;
66143;SDS011;52947;50.842;6.084;2023-03-01T09:57:15;16.52;;;8.88;;
66143;SDS011;52947;50.842;6.084;2023-03-01T09:59:58;15.68;;;8.70;;
66143;SDS011;52947;50.842;6.084;2023-03-01T10:02:33;14.85;;;9.50;;
66143;SDS011;52947;50.842;6.084;2023-03-01T10:08:01;13.07;;;9.02;;
66143;SDS011;52947;50.842;6.084;2023-03-01T10:10:43;15.63;;;8.93;;
66143;SDS011;52947;50.842;6.084;2023-03-01T10:13:17;15.38;;;8.25;;
66143;SDS011;52947;50.842;6.084;2023-03-01T10:15:50;14.45;;;8.73;;
66143;SDS011;52947;50.842;6.084;2023-03-01T10:18:24;13.85;;;8.25;;
66143;SDS011;52947;50.842;6.084;2023-03-01T10:20:59;12.93;;;8.95;;
66143;SDS011;52947;50.842;6.084;2023-03-01T10:23:30;16.13;;;8.48;;
66143;SDS011;52947;50.842;6.084;2023-03-01T10:26:07;18.42;;;9.65;;
66143;SDS011;52947;50.842;6.084;2023-03-01T10:28:47;15.07;;;8.55;;
66143;SDS011;52947;50.842;6.084;2023-03-01T10:31:24;15.05;;;8.52;;
66143;SDS011;52947;50.842;6.084;2023-03-01T10:34:04;16.00;;;8.32;;
66143;SDS011;52947;50.842;6.084;2023-03-01T10:36:37;17.55;;;8.55;;
66143;SDS011;52947;50.842;6.084;2023-03-01T10:39:13;13.25;;;8.25;;
66143;SDS011;52947;50.842;6.084;2023-03-01T10:41:55;15.40;;;8.35;;
66143;SDS011;52947;50.842;6.084;2023-03-01T10:44:38;16.48;;;8.90;;
66143;SDS011;52947;50.842;6.084;2023-03-01T10:47:15;13.48;;;8.15;;
66143;SDS011;52947;50.842;6.084;2023-03-01T10:49:51;11.13;;;8.05;;
66143;SDS011;52947;50.842;6.084;2023-03-01T10:52:24;14.88;;;8.82;;
66143;SDS011;52947;50.842;6.084;2023-03-01T10:54:57;15.75;;;7.90;;
66143;SDS011;52947;50.842;6.084;2023-03-01T10:57:28;13.95;;;8.80;;
66143;SDS011;52947;50.842;6.084;2023-03-01T11:00:10;13.68;;;8.27;;
66143;SDS011;52947;50.842;6.084;2023-03-01T11:02:45;17.77;;;8.30;;
66143;SDS011;52947;50.842;6.084;2023-03-01T11:05:18;12.93;;;8.00;;
66143;SDS011;52947;50.842;6.084;2023-03-01T11:07:51;16.67;;;9.00;;
66143;SDS011;52947;50.842;6.084;2023-03-01T11:10:22;20.52;;;8.73;;
66143;SDS011;52947;50.842;6.084;2023-03-01T11:12:51;14.85;;;8.77;;
66143;SDS011;52947;50.842;6.084;2023-03-01T11:15:24;16.55;;;9.65;;
66143;SDS011;52947;50.842;6.084;2023-03-01T11:17:54;20.63;;;9.02;;
66143;SDS011;52947;50.842;6.084;2023-03-01T11:20:35;14.05;;;8.23;;
66143;SDS011;52947;50.842;6.084;2023-03-01T11:23:04;16.88;;;9.40;;
66143;SDS011;52947;50.842;6.084;2023-03-01T11:25:38;17.35;;;8.40;;
66143;SDS011;52947;50.842;6.084;2023-03-01T11:28:10;19.70;;;9.38;;
66143;SDS011;52947;50.842;6.084;2023-03-01T11:30:43;18.42;;;9.73;;
66143;SDS011;52947;50.842;6.084;2023-03-01T11:33:34;15.27;;;9.38;;
66143;SDS011;52947;50.842;6.084;2023-03-01T11:36:10;14.77;;;8.65;;
66143;SDS011;52947;50.842;6.084;2023-03-01T11:38:44;16.27;;;9.73;;
66143;SDS011;52947;50.842;6.084;2023-03-01T11:41:14;18.00;;;9.43;;
66143;SDS011;52947;50.842;6.084;2023-03-01T11:43:47;20.25;;;9.27;;
66143;SDS011;52947;50.842;6.084;2023-03-01T11:46:30;18.83;;;10.15;;
66143;SDS011;52947;50.842;6.084;2023-03-01T11:49:17;13.70;;;8.60;;
66143;SDS011;52947;50.842;6.084;2023-03-01T11:52:01;20.80;;;9.52;;
66143;SDS011;52947;50.842;6.084;2023-03-01T11:54:39;14.02;;;9.35;;
66143;SDS011;52947;50.842;6.084;2023-03-01T11:57:20;16.77;;;8.80;;
66143;SDS011;52947;50.842;6.084;2023-03-01T12:00:15;14.60;;;8.77;;
66143;SDS011;52947;50.842;6.084;2023-03-01T12:02:59;17.77;;;9.23;;
66143;SDS011;52947;50.842;6.084;2023-03-01T12:05:56;19.90;;;9.27;;
66143;SDS011;52947;50.842;6.084;2023-03-01T12:08:34;15.02;;;8.85;;
66143;SDS011;52947;50.842;6.084;2023-03-01T12:11:09;13.35;;;8.65;;
66143;SDS011;52947;50.842;6.084;2023-03-01T12:14:02;18.80;;;9.32;;
66143;SDS011;52947;50.842;6.084;2023-03-01T12:16:52;16.08;;;9.80;;
66143;SDS011;52947;50.842;6.084;2023-03-01T12:19:32;14.65;;;9.25;;
66143;SDS011;52947;50.842;6.084;2023-03-01T12:22:13;21.23;;;10.38;;
66143;SDS011;52947;50.842;6.084;2023-03-01T12:24:55;14.40;;;9.73;;
66143;SDS011;52947;50.842;6.084;2023-03-01T12:30:57;23.98;;;10.88;;
66143;SDS011;52947;50.842;6.084;2023-03-01T12:33:38;17.15;;;9.45;;
66143;SDS011;52947;50.842;6.084;2023-03-01T12:39:13;17.10;;;10.27;;
66143;SDS011;52947;50.842;6.084;2023-03-01T12:41:51;20.42;;;8.93;;
66143;SDS011;52947;50.842;6.084;2023-03-01T12:44:30;17.73;;;9.82;;
66143;SDS011;52947;50.842;6.084;2023-03-01T12:47:14;15.15;;;9.77;;
66143;SDS011;52947;50.842;6.084;2023-03-01T12:49:51;17.58;;;9.80;;
66143;SDS011;52947;50.842;6.084;2023-03-01T12:52:24;18.17;;;9.77;;
66143;SDS011;52947;50.842;6.084;2023-03-01T12:55:00;18.10;;;10.52;;
66143;SDS011;52947;50.842;6.084;2023-03-01T12:57:34;15.57;;;10.32;;
66143;SDS011;52947;50.842;6.084;2023-03-01T13:00:10;17.23;;;10.82;;
66143;SDS011;52947;50.842;6.084;2023-03-01T13:02:51;15.13;;;8.50;;
66143;SDS011;52947;50.842;6.084;2023-03-01T13:05:26;17.63;;;9.60;;
66143;SDS011;52947;50.842;6.084;2023-03-01T13:08:04;15.05;;;8.88;;
66143;SDS011;52947;50.842;6.084;2023-03-01T13:10:40;19.33;;;9.70;;
66143;SDS011;52947;50.842;6.084;2023-03-01T13:13:19;14.40;;;9.15;;
66143;SDS011;52947;50.842;6.084;2023-03-01T13:15:48;15.10;;;8.55;;
66143;SDS011;52947;50.842;6.084;2023-03-01T13:18:31;17.88;;;9.05;;
66143;SDS011;52947;50.842;6.084;2023-03-01T13:21:01;18.08;;;8.57;;
66143;SDS011;52947;50.842;6.084;2023-03-01T13:23:37;18.40;;;8.88;;
66143;SDS011;52947;50.842;6.084;2023-03-01T13:26:08;15.25;;;8.30;;
66143;SDS011;52947;50.842;6.084;2023-03-01T13:28:45;13.80;;;8.60;;
66143;SDS011;52947;50.842;6.084;2023-03-01T13:34:41;10.10;;;6.93;;
66143;SDS011;52947;50.842;6.084;2023-03-01T13:37:18;14.57;;;8.45;;
66143;SDS011;52947;50.842;6.084;2023-03-01T13:39:52;15.20;;;9.02;;
66143;SDS011;52947;50.842;6.084;2023-03-01T13:45:31;16.05;;;8.40;;
66143;SDS011;52947;50.842;6.084;2023-03-01T13:48:08;15.00;;;9.68;;
66143;SDS011;52947;50.842;6.084;2023-03-01T13:50:45;12.60;;;8.45;;
66143;SDS011;52947;50.842;6.084;2023-03-01T13:53:17;16.35;;;9.57;;
66143;SDS011;52947;50.842;6.084;2023-03-01T13:55:47;13.73;;;7.00;;
66143;SDS011;52947;50.842;6.084;2023-03-01T13:58:19;13.25;;;8.25;;
66143;SDS011;52947;50.842;6.084;2023-03-01T14:00:55;17.30;;;9.80;;
66143;SDS011;52947;50.842;6.084;2023-03-01T14:03:24;18.27;;;8.48;;
66143;SDS011;52947;50.842;6.084;2023-03-01T14:06:01;14.43;;;9.75;;
66143;SDS011;52947;50.842;6.084;2023-03-01T14:08:44;14.05;;;8.85;;
66143;SDS011;52947;50.842;6.084;2023-03-01T14:11:29;14.60;;;8.13;;
66143;SDS011;52947;50.842;6.084;2023-03-01T14:14:18;15.80;;;9.52;;
66143;SDS011;52947;50.842;6.084;2023-03-01T14:17:12;15.60;;;9.25;;
66143;SDS011;52947;50.842;6.084;2023-03-01T14:19:54;13.55;;;8.07;;
66143;SDS011;52947;50.842;6.084;2023-03-01T14:22:25;13.77;;;8.65;;
66143;SDS011;52947;50.842;6.084;2023-03-01T14:24:55;18.35;;;8.75;;
66143;SDS011;52947;50.842;6.084;2023-03-01T14:27:27;12.65;;;8.77;;
66143;SDS011;52947;50.842;6.084;2023-03-01T14:29:58;14.68;;;7.68;;
66143;SDS011;52947;50.842;6.084;2023-03-01T14:32:28;15.82;;;7.60;;
66143;SDS011;52947;50.842;6.084;2023-03-01T14:34:57;12.32;;;7.95;;
66143;SDS011;52947;50.842;6.084;2023-03-01T14:37:27;11.43;;;6.72;;
66143;SDS011;52947;50.842;6.084;2023-03-01T14:39:57;12.23;;;7.57;;
66143;SDS011;52947;50.842;6.084;2023-03-01T14:42:28;16.98;;;8.30;;
66143;SDS011;52947;50.842;6.084;2023-03-01T14:45:01;11.02;;;6.80;;
66143;SDS011;52947;50.842;6.084;2023-03-01T14:47:32;13.93;;;8.38;;
66143;SDS011;52947;50.842;6.084;2023-03-01T14:50:03;11.65;;;7.18;;
66143;SDS011;52947;50.842;6.084;2023-03-01T14:52:36;14.27;;;7.35;;
66143;SDS011;52947;50.842;6.084;2023-03-01T14:55:07;12.35;;;7.50;;
66143;SDS011;52947;50.842;6.084;2023-03-01T14:57:42;20.83;;;7.28;;
66143;SDS011;52947;50.842;6.084;2023-03-01T15:00:13;12.85;;;7.40;;
66143;SDS011;52947;50.842;6.084;2023-03-01T15:02:46;16.75;;;7.95;;
66143;SDS011;52947;50.842;6.084;2023-03-01T15:05:15;14.57;;;6.50;;
66143;SDS011;52947;50.842;6.084;2023-03-01T15:07:50;11.75;;;7.57;;
66143;SDS011;52947;50.842;6.084;2023-03-01T15:10:20;16.27;;;5.93;;
66143;SDS011;52947;50.842;6.084;2023-03-01T15:12:49;11.88;;;7.07;;
66143;SDS011;52947;50.842;6.084;2023-03-01T15:18:05;10.20;;;6.15;;
66143;SDS011;52947;50.842;6.084;2023-03-01T15:20:41;10.82;;;5.95;;
66143;SDS011;52947;50.842;6.084;2023-03-01T15:23:19;10.65;;;6.05;;
66143;SDS011;52947;50.842;6.084;2023-03-01T15:25:50;17.27;;;7.03;;
66143;SDS011;52947;50.842;6.084;2023-03-01T15:28:23;15.02;;;6.63;;
66143;SDS011;52947;50.842;6.084;2023-03-01T15:30:54;12.75;;;7.35;;
66143;SDS011;52947;50.842;6.084;2023-03-01T15:33:29;9.48;;;5.55;;
66143;SDS011;52947;50.842;6.084;2023-03-01T15:36:00;10.70;;;6.03;;
66143;SDS011;52947;50.842;6.084;2023-03-01T15:38:36;10.80;;;6.60;;
66143;SDS011;52947;50.842;6.084;2023-03-01T15:41:24;10.75;;;6.05;;
66143;SDS011;52947;50.842;6.084;2023-03-01T15:43:53;11.13;;;6.50;;
66143;SDS011;52947;50.842;6.084;2023-03-01T15:46:23;11.73;;;6.43;;
66143;SDS011;52947;50.842;6.084;2023-03-01T15:48:59;11.25;;;5.85;;
66143;SDS011;52947;50.842;6.084;2023-03-01T15:51:30;11.50;;;6.70;;
66143;SDS011;52947;50.842;6.084;2023-03-01T15:54:02;15.68;;;7.40;;
66143;SDS011;52947;50.842;6.084;2023-03-01T15:56:32;14.48;;;6.78;;
66143;SDS011;52947;50.842;6.084;2023-03-01T15:59:01;11.85;;;7.07;;
66143;SDS011;52947;50.842;6.084;2023-03-01T16:01:30;11.45;;;7.03;;
66143;SDS011;52947;50.842;6.084;2023-03-01T16:04:00;11.75;;;5.97;;